createdAt,value
2019-05-05T00:01:45.046Z,83.70
2019-05-05T00:04:21.577Z,83.80
2019-05-05T00:06:52.406Z,84.40
2019-05-05T00:09:25.200Z,84.70
2019-05-05T00:11:55.292Z,85.00
2019-05-05T00:14:28.112Z,85.20
2019-05-05T00:17:10.144Z,85.60
2019-05-05T00:19:38.676Z,86.00
2019-05-05T00:22:07.190Z,86.50
2019-05-05T00:24:35.741Z,86.80
2019-05-05T00:27:04.394Z,87.00
2019-05-05T00:29:34.710Z,87.20
2019-05-05T00:32:04.921Z,87.20
2019-05-05T00:34:34.962Z,87.30
2019-05-05T00:37:04.624Z,87.70
2019-05-05T00:39:34.519Z,87.30
2019-05-05T00:42:04.780Z,87.20
2019-05-05T00:44:35.246Z,87.10
2019-05-05T00:47:05.552Z,87.30
2019-05-05T00:49:45.530Z,87.20
2019-05-05T00:52:09.081Z,87.50
2019-05-05T00:54:37.578Z,87.90
2019-05-05T00:57:06.148Z,87.90
2019-05-05T00:59:34.872Z,88.00
2019-05-05T01:02:20.232Z,88.10
2019-05-05T01:04:50.537Z,88.60
2019-05-05T01:07:19.103Z,88.70
2019-05-05T01:09:47.631Z,89.10
2019-05-05T01:12:16.619Z,89.10
2019-05-05T01:14:45.149Z,89.00
2019-05-05T01:17:14.693Z,89.10
2019-05-05T01:19:45.385Z,89.10
2019-05-05T01:22:14.397Z,89.20
2019-05-05T01:24:43.215Z,89.10
2019-05-05T01:27:11.733Z,89.00
2019-05-05T01:29:40.283Z,89.10
2019-05-05T01:32:10.366Z,89.40
2019-05-05T01:34:40.450Z,88.70
2019-05-05T01:37:10.530Z,88.90
2019-05-05T01:39:45.241Z,88.70
2019-05-05T01:42:15.508Z,88.70
2019-05-05T01:44:44.776Z,89.10
2019-05-05T01:47:14.787Z,89.10
2019-05-05T01:49:45.294Z,88.60
2019-05-05T01:52:14.864Z,88.60
2019-05-05T01:54:44.651Z,89.10
2019-05-05T01:57:14.856Z,89.40
2019-05-05T01:59:44.860Z,89.50
2019-05-05T02:02:14.604Z,89.50
2019-05-05T02:04:44.689Z,89.50
2019-05-05T02:07:14.540Z,89.60
2019-05-05T02:09:44.824Z,89.50
2019-05-05T02:12:15.876Z,89.10
2019-05-05T02:14:44.554Z,89.80
2019-05-05T02:17:14.364Z,89.50
2019-05-05T02:19:44.328Z,89.40
2019-05-05T02:22:14.615Z,89.40
2019-05-05T02:24:44.453Z,89.80
2019-05-05T02:27:14.549Z,89.50
2019-05-05T02:29:44.861Z,89.40
2019-05-05T02:32:31.353Z,89.30
2019-05-05T02:35:01.557Z,89.40
2019-05-05T02:37:30.138Z,89.50
2019-05-05T02:40:03.320Z,89.30
2019-05-05T02:42:30.153Z,89.30
2019-05-05T02:45:05.015Z,89.40
2019-05-05T02:47:54.941Z,89.20
2019-05-05T02:50:25.117Z,89.20
2019-05-05T02:52:54.800Z,89.30
2019-05-05T02:55:24.018Z,89.30
2019-05-05T02:57:54.425Z,89.60
2019-05-05T03:00:24.725Z,89.70
2019-05-05T03:02:55.866Z,89.60
2019-05-05T03:05:24.822Z,89.40
2019-05-05T03:07:54.397Z,90.10
2019-05-05T03:10:24.564Z,90.00
2019-05-05T03:12:54.414Z,90.10
2019-05-05T03:15:48.926Z,90.30
2019-05-05T03:18:17.579Z,90.30
2019-05-05T03:20:46.248Z,90.40
2019-05-05T03:23:15.022Z,90.40
2019-05-05T03:25:44.126Z,90.40
2019-05-05T03:28:13.721Z,90.30
2019-05-05T03:30:45.313Z,90.40
2019-05-05T03:33:16.002Z,90.40
2019-05-05T03:35:45.586Z,90.30
2019-05-05T03:38:14.280Z,90.30
2019-05-05T03:40:44.661Z,90.10
2019-05-05T03:43:20.876Z,90.20
2019-05-05T03:45:51.101Z,90.10
2019-05-05T03:48:20.140Z,89.90
2019-05-05T03:50:48.992Z,89.90
2019-05-05T03:53:17.752Z,90.00
2019-05-05T03:55:46.288Z,90.10
2019-05-05T03:58:14.823Z,90.30
2019-05-05T04:00:52.351Z,90.40
2019-05-05T04:03:20.891Z,90.20
2019-05-05T04:05:53.987Z,90.00
2019-05-05T04:08:23.484Z,90.00
2019-05-05T04:10:54.502Z,90.10
2019-05-05T04:13:24.169Z,89.80
2019-05-05T04:16:10.743Z,89.50
2019-05-05T04:18:43.647Z,89.30
2019-05-05T04:21:14.372Z,89.20
2019-05-05T04:23:44.068Z,89.20
2019-05-05T04:26:14.261Z,88.80
2019-05-05T04:28:43.625Z,89.00
2019-05-05T04:31:13.536Z,88.40
2019-05-05T04:33:44.353Z,88.00
2019-05-05T04:36:14.334Z,86.10
2019-05-05T04:38:43.954Z,86.60
2019-05-05T04:41:14.063Z,86.00
2019-05-05T04:43:44.216Z,86.60
2019-05-05T04:46:14.006Z,80.60
2019-05-05T04:48:56.328Z,76.10
2019-05-05T04:51:26.424Z,73.50
2019-05-05T04:54:14.188Z,67.40
2019-05-05T04:56:44.771Z,61.70
2019-05-05T04:59:14.426Z,55.90
2019-05-05T05:01:43.995Z,53.20
2019-05-05T05:04:24.333Z,52.80
2019-05-05T05:06:54.629Z,50.10
2019-05-05T05:09:23.780Z,47.40
2019-05-05T05:11:54.547Z,47.70
2019-05-05T05:14:24.646Z,45.10
2019-05-05T05:16:54.251Z,44.00
2019-05-05T05:19:24.210Z,42.40
2019-05-05T05:22:01.700Z,42.00
2019-05-05T05:24:23.761Z,41.00
2019-05-05T05:26:52.417Z,38.30
2019-05-05T05:29:20.867Z,37.30
2019-05-05T05:31:49.334Z,37.00
2019-05-05T05:34:17.782Z,38.70
2019-05-05T05:36:46.701Z,38.40
2019-05-05T05:39:16.802Z,37.80
2019-05-05T05:41:46.904Z,37.60
2019-05-05T05:44:17.246Z,37.00
2019-05-05T05:46:54.586Z,34.70
2019-05-05T05:49:30.782Z,35.30
2019-05-05T05:52:12.375Z,34.80
2019-05-05T05:54:29.906Z,32.40
2019-05-05T05:56:58.368Z,31.70
2019-05-05T05:59:26.990Z,30.30
2019-05-05T06:02:09.088Z,29.50
2019-05-05T06:04:25.697Z,28.90
2019-05-05T06:06:54.450Z,31.90
2019-05-05T06:09:23.794Z,29.90
2019-05-05T06:11:54.086Z,29.50
2019-05-05T06:14:24.587Z,29.40
2019-05-05T06:16:53.941Z,29.20
2019-05-05T06:19:24.500Z,29.50
2019-05-05T06:21:54.295Z,29.30
2019-05-05T06:24:24.026Z,28.20
2019-05-05T06:26:54.571Z,29.30
2019-05-05T06:29:23.885Z,28.40
2019-05-05T06:31:53.750Z,27.30
2019-05-05T06:34:24.295Z,26.40
2019-05-05T06:36:53.769Z,28.00
2019-05-05T06:39:24.038Z,27.60
2019-05-05T06:41:57.311Z,27.70
2019-05-05T06:44:27.441Z,28.70
2019-05-05T06:47:06.695Z,27.20
2019-05-05T06:49:35.321Z,25.40
2019-05-05T06:52:04.277Z,25.90
2019-05-05T06:54:34.651Z,26.30
2019-05-05T06:57:04.494Z,26.60
2019-05-05T06:59:34.977Z,27.40
2019-05-05T07:02:04.324Z,27.20
2019-05-05T07:04:34.008Z,26.50
2019-05-05T07:07:04.879Z,26.10
2019-05-05T07:09:33.633Z,25.40
2019-05-05T07:12:04.311Z,26.40
2019-05-05T07:14:34.031Z,25.00
2019-05-05T07:17:04.895Z,25.90
2019-05-05T07:19:34.496Z,25.30
2019-05-05T07:22:04.077Z,25.50
2019-05-05T07:24:34.462Z,25.10
2019-05-05T07:27:04.764Z,24.60
2019-05-05T07:29:34.302Z,24.30
2019-05-05T07:32:03.990Z,23.20
2019-05-05T07:34:39.864Z,22.60
2019-05-05T07:37:08.352Z,21.90
2019-05-05T07:39:36.858Z,21.80
2019-05-05T07:42:05.326Z,22.30
2019-05-05T07:44:33.986Z,23.40
2019-05-05T07:47:03.671Z,22.80
2019-05-05T07:49:33.559Z,21.30
2019-05-05T07:52:03.958Z,21.00
2019-05-05T07:54:34.171Z,21.20
2019-05-05T07:57:04.217Z,21.10
2019-05-05T07:59:34.058Z,21.30
2019-05-05T08:02:03.973Z,19.90
2019-05-05T08:04:34.609Z,19.90
2019-05-05T08:07:11.492Z,19.60
2019-05-05T08:09:53.581Z,19.70
2019-05-05T08:12:22.133Z,18.80
2019-05-05T08:14:55.927Z,19.30
2019-05-05T08:17:29.807Z,19.50
2019-05-05T08:20:03.994Z,20.00
2019-05-05T08:22:33.985Z,19.50
2019-05-05T08:25:10.188Z,19.40
2019-05-05T08:27:53.706Z,19.30
2019-05-05T08:30:26.981Z,20.30
2019-05-05T08:32:55.739Z,21.00
2019-05-05T08:35:24.255Z,23.00
2019-05-05T08:37:54.260Z,24.50
2019-05-05T08:40:23.990Z,25.50
2019-05-05T08:42:53.894Z,27.40
2019-05-05T08:45:26.159Z,28.70
2019-05-05T08:47:54.205Z,29.20
2019-05-05T08:50:26.773Z,30.60
2019-05-05T08:52:53.787Z,32.00
2019-05-05T08:55:28.346Z,32.70
2019-05-05T08:57:55.185Z,33.80
2019-05-05T09:00:24.439Z,32.80
2019-05-05T09:02:54.309Z,30.00
2019-05-05T09:05:23.833Z,27.50
2019-05-05T09:07:54.610Z,25.90
2019-05-05T09:10:23.660Z,23.70
2019-05-05T09:12:54.254Z,21.70
2019-05-05T09:15:24.285Z,21.60
2019-05-05T09:17:54.496Z,21.20
2019-05-05T09:20:24.227Z,20.90
2019-05-05T09:22:53.537Z,20.80
2019-05-05T09:25:26.567Z,20.30
2019-05-05T09:28:02.955Z,20.60
2019-05-05T09:30:35.875Z,20.50
2019-05-05T09:33:05.183Z,19.50
2019-05-05T09:35:34.301Z,20.00
2019-05-05T09:38:04.065Z,20.30
2019-05-05T09:40:41.162Z,21.70
2019-05-05T09:43:10.075Z,24.00
2019-05-05T09:45:39.185Z,26.00
2019-05-05T09:48:07.930Z,26.60
2019-05-05T09:50:36.451Z,26.40
2019-05-05T09:53:05.005Z,24.00
2019-05-05T09:55:33.629Z,23.30
2019-05-05T09:58:04.359Z,22.80
2019-05-05T10:00:34.123Z,21.10
2019-05-05T10:03:03.821Z,23.00
2019-05-05T10:05:34.236Z,25.10
2019-05-05T10:08:03.566Z,23.80
2019-05-05T10:10:33.750Z,24.70
2019-05-05T10:13:04.193Z,24.80
2019-05-05T10:15:32.571Z,23.90
2019-05-05T10:18:01.036Z,24.30
2019-05-05T10:20:29.552Z,24.10
2019-05-05T10:22:58.077Z,25.70
2019-05-05T10:25:34.160Z,27.20
2019-05-05T10:28:04.220Z,26.60
2019-05-05T10:30:33.167Z,25.70
2019-05-05T10:33:03.618Z,25.00
2019-05-05T10:35:31.854Z,26.10
2019-05-05T10:38:00.396Z,26.70
2019-05-05T10:40:34.071Z,27.90
2019-05-05T10:43:04.439Z,26.90
2019-05-05T10:45:33.082Z,24.40
2019-05-05T10:48:03.871Z,22.60
2019-05-05T10:50:33.892Z,22.80
2019-05-05T10:53:04.246Z,20.40
2019-05-05T10:55:34.378Z,20.60
2019-05-05T10:58:02.450Z,21.60
2019-05-05T11:00:39.810Z,21.00
2019-05-05T11:03:08.393Z,21.30
2019-05-05T11:05:36.833Z,20.20
2019-05-05T11:08:05.460Z,20.90
2019-05-05T11:10:35.071Z,21.50
2019-05-05T11:13:04.013Z,22.50
2019-05-05T11:15:33.570Z,22.20
2019-05-05T11:18:07.211Z,21.90
2019-05-05T11:20:51.002Z,22.20
2019-05-05T11:23:19.496Z,21.80
2019-05-05T11:25:47.982Z,22.60
2019-05-05T11:28:16.494Z,22.30
2019-05-05T11:30:46.898Z,23.30
2019-05-05T11:33:34.418Z,23.60
2019-05-05T11:36:04.745Z,23.40
2019-05-05T11:38:33.879Z,23.80
2019-05-05T11:41:04.770Z,27.00
2019-05-05T11:43:33.807Z,29.60
2019-05-05T11:46:02.579Z,31.00
2019-05-05T11:48:31.170Z,31.90
2019-05-05T11:50:59.646Z,31.30
2019-05-05T11:53:28.116Z,32.70
2019-05-05T11:55:56.626Z,32.40
2019-05-05T11:58:25.110Z,32.20
2019-05-05T12:00:54.514Z,31.20
2019-05-05T12:03:23.297Z,31.70
2019-05-05T12:05:51.799Z,31.50
2019-05-05T12:08:20.257Z,31.80
2019-05-05T12:10:56.145Z,31.90
2019-05-05T12:13:24.623Z,31.50
2019-05-05T12:15:54.816Z,31.10
2019-05-05T12:18:23.801Z,31.90
2019-05-05T12:20:54.263Z,32.00
2019-05-05T12:23:22.658Z,32.30
2019-05-05T12:25:56.895Z,33.00
2019-05-05T12:28:36.353Z,33.90
2019-05-05T12:31:15.450Z,34.90
2019-05-05T12:33:44.246Z,33.50
2019-05-05T12:36:14.894Z,32.90
2019-05-05T12:38:43.919Z,32.30
2019-05-05T12:41:14.581Z,31.70
2019-05-05T12:43:44.177Z,31.80
2019-05-05T12:46:17.369Z,30.40
2019-05-05T12:48:47.459Z,30.80
2019-05-05T12:51:15.902Z,30.10
2019-05-05T12:53:44.359Z,30.10
2019-05-05T12:56:14.604Z,30.80
2019-05-05T12:58:43.977Z,31.70
2019-05-05T13:01:14.454Z,32.60
2019-05-05T13:03:43.740Z,31.50
2019-05-05T13:06:14.481Z,30.40
2019-05-05T13:08:44.467Z,29.50
2019-05-05T13:11:12.864Z,29.10
2019-05-05T13:13:41.319Z,30.60
2019-05-05T13:16:09.982Z,31.70
2019-05-05T13:18:38.631Z,32.00
2019-05-05T13:21:25.244Z,32.50
2019-05-05T13:23:57.979Z,31.50
2019-05-05T13:26:44.687Z,30.00
2019-05-05T13:29:13.934Z,29.90
2019-05-05T13:31:44.164Z,30.70
2019-05-05T13:34:13.629Z,31.20
2019-05-05T13:36:44.137Z,32.40
2019-05-05T13:39:14.378Z,32.50
2019-05-05T13:41:44.660Z,31.80
2019-05-05T13:44:29.244Z,31.00
2019-05-05T13:46:57.732Z,31.20
2019-05-05T13:49:33.780Z,31.60
2019-05-05T13:52:04.635Z,32.40
2019-05-05T13:54:33.578Z,31.60
2019-05-05T13:57:03.904Z,30.90
2019-05-05T13:59:33.938Z,30.90
2019-05-05T14:02:02.538Z,30.30
2019-05-05T14:04:31.063Z,28.20
2019-05-05T14:06:59.542Z,27.10
2019-05-05T14:09:28.166Z,27.30
2019-05-05T14:11:56.610Z,27.90
2019-05-05T14:14:25.136Z,28.70
2019-05-05T14:16:53.848Z,29.30
2019-05-05T14:19:24.712Z,29.40
2019-05-05T14:21:53.838Z,29.70
2019-05-05T14:24:39.449Z,30.30
2019-05-05T14:27:07.981Z,32.10
2019-05-05T14:29:47.102Z,33.20
2019-05-05T14:32:17.208Z,34.10
2019-05-05T14:34:47.315Z,34.50
2019-05-05T14:37:33.892Z,34.20
2019-05-05T14:40:04.612Z,34.20
2019-05-05T14:42:34.172Z,34.40
2019-05-05T14:45:04.756Z,35.10
2019-05-05T14:47:33.668Z,35.10
2019-05-05T14:50:04.536Z,35.00
2019-05-05T14:52:32.402Z,35.60
2019-05-05T14:55:00.846Z,35.80
2019-05-05T14:57:29.479Z,36.00
2019-05-05T14:59:57.937Z,35.70
2019-05-05T15:02:26.507Z,35.30
2019-05-05T15:04:56.605Z,35.00
2019-05-05T15:07:29.654Z,35.00
2019-05-05T15:10:04.196Z,34.90
2019-05-05T15:12:37.314Z,35.20
2019-05-05T15:15:07.677Z,36.40
2019-05-05T15:17:36.197Z,36.00
2019-05-05T15:20:07.736Z,36.10
2019-05-05T15:22:36.199Z,36.10
2019-05-05T15:25:06.454Z,36.20
2019-05-05T15:27:34.949Z,36.80
2019-05-05T15:30:05.061Z,36.40
2019-05-05T15:32:34.404Z,36.40
2019-05-05T15:35:04.228Z,36.80
2019-05-05T15:37:32.712Z,36.00
2019-05-05T15:40:01.231Z,35.50
2019-05-05T15:42:29.714Z,34.70
2019-05-05T15:44:58.169Z,33.70
2019-05-05T15:47:26.614Z,34.20
2019-05-05T15:49:55.298Z,34.80
2019-05-05T15:52:24.323Z,34.90
2019-05-05T15:54:53.941Z,34.40
2019-05-05T15:57:24.200Z,34.60
2019-05-05T15:59:54.284Z,35.00
2019-05-05T16:02:24.025Z,34.20
2019-05-05T16:04:54.111Z,33.70
2019-05-05T16:07:24.280Z,34.00
2019-05-05T16:09:53.717Z,34.00
2019-05-05T16:12:32.023Z,35.00
2019-05-05T16:15:00.396Z,35.90
2019-05-05T16:17:30.636Z,35.90
2019-05-05T16:20:00.764Z,37.10
2019-05-05T16:22:30.853Z,37.40
2019-05-05T16:25:10.289Z,37.50
2019-05-05T16:27:39.679Z,37.10
2019-05-05T16:30:09.951Z,37.30
2019-05-05T16:32:39.434Z,37.60
2019-05-05T16:35:09.814Z,37.10
2019-05-05T16:37:38.393Z,37.00
2019-05-05T16:40:08.697Z,37.10
2019-05-05T16:42:37.299Z,37.10
2019-05-05T16:45:08.033Z,37.20
2019-05-05T16:47:36.779Z,37.80
2019-05-05T16:50:07.351Z,37.60
2019-05-05T16:52:37.450Z,37.70
2019-05-05T16:55:24.031Z,37.90
2019-05-05T16:57:52.491Z,37.10
2019-05-05T17:00:21.609Z,37.80
2019-05-05T17:02:50.328Z,38.30
2019-05-05T17:05:18.906Z,38.60
2019-05-05T17:07:47.393Z,38.80
2019-05-05T17:10:15.920Z,38.40
2019-05-05T17:12:44.532Z,38.80
2019-05-05T17:15:21.467Z,39.50
2019-05-05T17:17:57.453Z,39.60
2019-05-05T17:20:30.442Z,39.90
2019-05-05T17:23:06.628Z,39.60
2019-05-05T17:25:35.183Z,38.60
2019-05-05T17:28:04.546Z,38.50
2019-05-05T17:30:34.159Z,39.00
2019-05-05T17:33:03.789Z,34.90
2019-05-05T17:35:33.668Z,35.30
2019-05-05T17:38:09.851Z,35.50
2019-05-05T17:40:39.931Z,35.30
2019-05-05T17:43:27.850Z,35.70
2019-05-05T17:46:14.355Z,36.60
2019-05-05T17:49:00.625Z,37.60
2019-05-05T17:51:36.712Z,38.70
2019-05-05T17:54:24.737Z,39.20
2019-05-05T17:56:55.047Z,39.10
2019-05-05T17:59:23.719Z,39.60
2019-05-05T18:01:54.009Z,40.00
2019-05-05T18:04:22.651Z,40.20
2019-05-05T18:06:53.643Z,39.90
2019-05-05T18:09:34.457Z,39.20
2019-05-05T18:12:19.978Z,38.60
2019-05-05T18:14:50.053Z,38.30
2019-05-05T18:17:18.528Z,38.50
2019-05-05T18:19:46.998Z,39.50
2019-05-05T18:25:44.342Z,40.10
2019-05-05T18:28:30.437Z,40.70
2019-05-05T18:30:46.351Z,41.20
2019-05-05T18:33:14.876Z,43.20
2019-05-05T18:35:44.389Z,44.20
2019-05-05T18:38:13.724Z,45.10
2019-05-05T18:40:43.429Z,46.00
2019-05-05T18:43:13.624Z,47.00
2019-05-05T18:45:44.021Z,48.20
2019-05-05T18:48:13.886Z,49.10
2019-05-05T18:50:42.541Z,49.90
2019-05-05T18:53:10.996Z,50.50
2019-05-05T18:55:39.453Z,51.00
2019-05-05T18:58:08.180Z,51.50
2019-05-05T19:00:38.304Z,52.30
2019-05-05T19:03:17.807Z,52.50
2019-05-05T19:05:40.313Z,52.70
2019-05-05T19:08:10.428Z,53.60
2019-05-05T19:10:38.857Z,52.70
2019-05-05T19:13:07.322Z,53.00
2019-05-05T19:15:35.900Z,53.00
2019-05-05T19:18:06.483Z,53.00
2019-05-05T19:20:41.727Z,53.20
2019-05-05T19:23:10.180Z,53.10
2019-05-05T19:25:38.627Z,53.40
2019-05-05T19:28:07.093Z,53.30
2019-05-05T19:30:36.163Z,53.20
2019-05-05T19:33:05.198Z,53.30
2019-05-05T19:35:43.583Z,53.50
2019-05-05T19:38:04.919Z,53.90
2019-05-05T19:40:34.006Z,54.30
2019-05-05T19:43:04.361Z,54.60
2019-05-05T19:45:34.422Z,54.60
2019-05-05T19:48:21.125Z,55.20
2019-05-05T19:50:54.237Z,55.50
2019-05-05T19:53:24.597Z,56.10
2019-05-05T19:55:55.259Z,56.70
2019-05-05T19:58:23.780Z,57.30
2019-05-05T20:00:54.637Z,57.50
2019-05-05T20:03:24.148Z,57.90
2019-05-05T20:05:54.023Z,58.30
2019-05-05T20:08:24.040Z,58.40
2019-05-05T20:10:54.164Z,58.60
2019-05-05T20:13:23.097Z,58.50
2019-05-05T20:15:55.990Z,59.10
2019-05-05T20:18:24.979Z,59.20
2019-05-05T20:21:01.637Z,60.50
2019-05-05T20:23:24.388Z,60.20
2019-05-05T20:25:53.754Z,60.00
2019-05-05T20:28:24.109Z,60.50
2019-05-05T20:33:31.219Z,61.60
2019-05-05T20:36:04.008Z,62.10
2019-05-05T20:38:34.119Z,62.30
2019-05-05T20:41:14.310Z,62.50
2019-05-05T20:43:44.531Z,62.30
2019-05-05T20:46:12.607Z,62.70
2019-05-05T20:48:41.390Z,62.90
2019-05-05T20:51:09.993Z,63.30
2019-05-05T20:53:38.443Z,63.70
2019-05-05T20:56:06.882Z,63.80
2019-05-05T20:58:35.307Z,63.70
2019-05-05T21:01:05.081Z,64.10
2019-05-05T21:03:34.705Z,64.50
2019-05-05T21:06:04.361Z,65.10
2019-05-05T21:08:34.879Z,65.60
2019-05-05T21:11:04.400Z,65.80
2019-05-05T21:13:34.131Z,66.00
2019-05-05T21:16:02.909Z,66.20
2019-05-05T21:18:34.726Z,66.70
2019-05-05T21:21:05.071Z,66.80
2019-05-05T21:23:35.150Z,66.90
2019-05-05T21:26:05.244Z,66.90
2019-05-05T21:28:34.060Z,67.20
2019-05-05T21:31:04.652Z,67.50
2019-05-05T21:33:34.740Z,68.00
2019-05-05T21:36:04.305Z,68.00
2019-05-05T21:38:35.421Z,68.60
2019-05-05T21:41:04.313Z,68.60
2019-05-05T21:43:32.915Z,68.90
2019-05-05T21:46:01.363Z,69.40
2019-05-05T21:48:29.844Z,69.40
2019-05-05T21:51:05.480Z,69.70
2019-05-05T21:53:44.767Z,70.10
2019-05-05T21:56:31.467Z,70.40
2019-05-05T21:59:00.011Z,70.90
2019-05-05T22:01:29.597Z,71.60
2019-05-05T22:03:58.110Z,71.50
2019-05-05T22:06:26.591Z,72.00
2019-05-05T22:08:55.071Z,72.30
2019-05-05T22:11:24.236Z,72.40
2019-05-05T22:13:54.002Z,72.80
2019-05-05T22:16:22.807Z,73.00
2019-05-05T22:18:53.864Z,73.00
2019-05-05T22:21:26.508Z,73.40
2019-05-05T22:24:15.756Z,73.70
2019-05-05T22:26:44.731Z,74.00
2019-05-05T22:29:14.069Z,74.30
2019-05-05T22:31:43.709Z,74.50
2019-05-05T22:34:14.402Z,75.00
2019-05-05T22:36:44.613Z,75.20
2019-05-05T22:39:16.475Z,75.60
2019-05-05T22:41:44.522Z,75.20
2019-05-05T22:44:13.946Z,75.10
2019-05-05T22:46:42.761Z,74.70
2019-05-05T22:49:11.235Z,75.20
2019-05-05T22:51:40.897Z,75.70
2019-05-05T22:54:09.645Z,75.80
2019-05-05T22:56:38.375Z,76.20
2019-05-05T22:59:06.954Z,76.60
2019-05-05T23:01:35.443Z,76.70
2019-05-05T23:04:08.343Z,76.90
2019-05-05T23:06:38.507Z,77.30
2019-05-05T23:09:10.469Z,76.80
2019-05-05T23:11:38.982Z,77.30
2019-05-05T23:14:25.426Z,77.40
2019-05-05T23:16:55.517Z,78.20
2019-05-05T23:19:25.758Z,78.40
2019-05-05T23:22:16.770Z,78.70
2019-05-05T23:24:46.938Z,78.80
2019-05-05T23:27:34.372Z,78.60
2019-05-05T23:30:03.280Z,79.00
2019-05-05T23:32:31.726Z,79.30
2019-05-05T23:35:00.166Z,79.50
2019-05-05T23:37:28.618Z,79.40
2019-05-05T23:39:57.403Z,79.60
2019-05-05T23:42:25.838Z,79.80
2019-05-05T23:44:54.294Z,80.20
2019-05-05T23:47:24.783Z,80.10
2019-05-05T23:49:53.750Z,80.00
2019-05-05T23:52:24.013Z,80.50
2019-05-05T23:54:52.538Z,80.50
2019-05-05T23:57:21.006Z,80.30
2019-05-05T23:59:49.453Z,81.00
